Time;durP1;ratioP1;P1;durP2;ratioP2;P2;SDS_P1;SDS_P2;PMS_P1;PMS_P2;Temp;Humidity;BMP_temperature;BMP_pressure;BME280_temperature;BME280_humidity;BME280_pressure;Samples;Min_cycle;Max_cycle;Signal;HPM_P1;HPM_P2
2023/03/11 00:02:02;;;;;;;16.77;10.07;;;;;;;;;;5050588;28;20025;-76
2023/03/11 00:04:28;;;;;;;17.17;11.18;;;;;;;;;;5050418;28;20523;-76
2023/03/11 00:06:53;;;;;;;17.02;10.82;;;;;;;;;;5032964;28;20391;-76
2023/03/11 00:09:19;;;;;;;17.13;10.15;;;;;;;;;;5050752;28;20128;-76
2023/03/11 00:11:44;;;;;;;16.27;10.00;;;;;;;;;;5050790;28;20043;-77
2023/03/11 00:14:10;;;;;;;17.58;11.45;;;;;;;;;;5033157;28;20033;-76
2023/03/11 00:16:35;;;;;;;17.08;11.60;;;;;;;;;;5032584;28;20384;-77
2023/03/11 00:19:01;;;;;;;19.00;11.50;;;;;;;;;;5032576;28;20041;-77
2023/03/11 00:21:26;;;;;;;19.85;12.18;;;;;;;;;;5036632;28;20025;-76
2023/03/11 00:23:52;;;;;;;19.73;11.95;;;;;;;;;;5037158;28;20563;-77
2023/03/11 00:26:17;;;;;;;19.48;11.85;;;;;;;;;;5037033;28;20013;-77
2023/03/11 00:28:43;;;;;;;21.85;12.13;;;;;;;;;;5020763;28;20037;-77
2023/03/11 00:31:09;;;;;;;22.73;13.25;;;;;;;;;;5054522;28;20048;-76
2023/03/11 00:33:35;;;;;;;19.80;12.60;;;;;;;;;;5036991;28;20044;-76
2023/03/11 00:36:00;;;;;;;17.45;12.23;;;;;;;;;;5036822;28;20020;-76
2023/03/11 00:38:26;;;;;;;20.08;11.88;;;;;;;;;;5016904;28;20045;-76
2023/03/11 00:40:51;;;;;;;21.25;12.73;;;;;;;;;;5036132;28;20075;-77
2023/03/11 00:43:17;;;;;;;19.85;12.75;;;;;;;;;;5054876;28;20048;-77
2023/03/11 00:45:42;;;;;;;21.85;12.20;;;;;;;;;;5036564;28;20044;-77
2023/03/11 00:48:08;;;;;;;19.65;11.85;;;;;;;;;;5036727;28;20040;-77
2023/03/11 00:50:34;;;;;;;17.80;12.23;;;;;;;;;;5036504;28;20040;-77
2023/03/11 00:52:59;;;;;;;21.67;13.40;;;;;;;;;;5036651;28;20411;-77
2023/03/11 00:55:25;;;;;;;20.27;12.80;;;;;;;;;;5049292;28;20108;-77
2023/03/11 00:57:55;;;;;;;22.92;13.77;;;;;;;;;;5052668;28;20049;-76
2023/03/11 01:00:23;;;;;;;22.45;13.90;;;;;;;;;;5036547;28;20044;-76
2023/03/11 01:02:48;;;;;;;20.38;12.90;;;;;;;;;;5036031;28;20036;-76
2023/03/11 01:05:14;;;;;;;23.55;13.70;;;;;;;;;;5036118;28;20500;-76
2023/03/11 01:07:40;;;;;;;23.23;13.93;;;;;;;;;;5052604;28;20498;-76
2023/03/11 01:10:05;;;;;;;23.42;15.30;;;;;;;;;;5036086;28;20029;-76
2023/03/11 01:12:31;;;;;;;22.25;13.60;;;;;;;;;;5053801;28;20038;-77
2023/03/11 01:14:56;;;;;;;24.13;13.40;;;;;;;;;;5052995;28;20052;-77
2023/03/11 01:17:22;;;;;;;18.98;13.05;;;;;;;;;;5032505;28;20073;-77
2023/03/11 01:19:47;;;;;;;26.27;15.55;;;;;;;;;;5038174;28;20029;-77
2023/03/11 01:22:14;;;;;;;22.20;13.85;;;;;;;;;;5053704;28;20033;-77
2023/03/11 01:24:39;;;;;;;21.48;12.63;;;;;;;;;;5052555;28;20070;-77
2023/03/11 01:27:05;;;;;;;24.25;13.43;;;;;;;;;;5053625;28;20044;-78
2023/03/11 01:29:30;;;;;;;19.38;12.73;;;;;;;;;;5034569;28;20645;-77
2023/03/11 01:31:56;;;;;;;21.00;12.65;;;;;;;;;;5034181;28;20364;-77
2023/03/11 01:34:21;;;;;;;21.95;13.65;;;;;;;;;;5053178;28;20112;-78
2023/03/11 01:36:47;;;;;;;25.35;13.45;;;;;;;;;;5053469;28;20056;-77
2023/03/11 01:39:12;;;;;;;21.60;13.52;;;;;;;;;;5053509;28;20047;-77
2023/03/11 01:41:38;;;;;;;18.60;13.10;;;;;;;;;;5035408;28;20051;-78
2023/03/11 01:44:04;;;;;;;21.77;13.63;;;;;;;;;;5051969;28;20021;-78
2023/03/11 01:46:36;;;;;;;21.63;13.18;;;;;;;;;;5051734;28;20127;-77
2023/03/11 01:49:01;;;;;;;24.45;14.32;;;;;;;;;;5052039;28;20131;-77
2023/03/11 01:51:37;;;;;;;20.70;13.52;;;;;;;;;;5035591;28;20073;-77
2023/03/11 01:54:04;;;;;;;22.10;14.07;;;;;;;;;;5038594;28;20071;-77
2023/03/11 01:56:30;;;;;;;23.65;14.00;;;;;;;;;;5053493;28;20039;-77
2023/03/11 01:58:56;;;;;;;21.00;13.40;;;;;;;;;;5037914;28;20036;-77
2023/03/11 02:01:22;;;;;;;22.75;14.13;;;;;;;;;;5036125;28;20178;-78
2023/03/11 02:03:48;;;;;;;27.95;14.80;;;;;;;;;;5033515;28;20025;-78
2023/03/11 02:06:15;;;;;;;21.17;13.45;;;;;;;;;;5018775;28;20036;-78
2023/03/11 02:08:41;;;;;;;21.17;13.75;;;;;;;;;;5039191;28;20521;-77
2023/03/11 02:11:10;;;;;;;22.45;14.02;;;;;;;;;;5027596;28;20025;-77
2023/03/11 02:13:37;;;;;;;19.27;12.82;;;;;;;;;;5035451;28;20041;-77
2023/03/11 02:16:02;;;;;;;20.00;13.35;;;;;;;;;;5053030;28;20037;-77
2023/03/11 02:18:28;;;;;;;23.42;14.75;;;;;;;;;;5029651;28;20133;-77
2023/03/11 02:21:06;;;;;;;23.67;14.82;;;;;;;;;;5027403;28;20029;-76
2023/03/11 02:23:46;;;;;;;24.90;15.10;;;;;;;;;;5035033;28;20426;-77
2023/03/11 02:26:14;;;;;;;24.70;14.73;;;;;;;;;;5020160;28;20048;-77
2023/03/11 02:28:40;;;;;;;25.25;15.00;;;;;;;;;;5019090;28;20082;-76
2023/03/11 02:31:06;;;;;;;21.63;13.63;;;;;;;;;;5035676;28;20559;-77
2023/03/11 02:33:32;;;;;;;24.90;15.00;;;;;;;;;;5035156;28;20487;-76
2023/03/11 02:35:57;;;;;;;22.98;13.98;;;;;;;;;;5019176;28;20048;-76
2023/03/11 02:38:23;;;;;;;23.58;14.27;;;;;;;;;;5018812;28;20029;-76
2023/03/11 02:40:50;;;;;;;25.33;14.90;;;;;;;;;;5066063;28;20028;-77
2023/03/11 02:43:32;;;;;;;25.83;16.90;;;;;;;;;;5053703;28;20017;-78
2023/03/11 02:45:57;;;;;;;28.42;15.88;;;;;;;;;;5054214;28;20819;-77
2023/03/11 02:48:23;;;;;;;29.77;16.33;;;;;;;;;;5037258;28;20024;-76
2023/03/11 02:50:49;;;;;;;27.55;16.00;;;;;;;;;;5036066;28;20060;-77
2023/03/11 02:53:16;;;;;;;25.67;16.05;;;;;;;;;;5021454;28;20025;-77
2023/03/11 02:55:42;;;;;;;25.15;16.40;;;;;;;;;;5036903;28;20049;-77
2023/03/11 02:58:07;;;;;;;25.13;15.35;;;;;;;;;;5053754;28;20039;-77
2023/03/11 03:00:33;;;;;;;34.22;16.38;;;;;;;;;;5053359;28;20135;-77
2023/03/11 03:03:03;;;;;;;25.52;16.30;;;;;;;;;;5053227;28;20394;-77
2023/03/11 03:05:29;;;;;;;27.17;16.10;;;;;;;;;;5053192;28;20036;-77
2023/03/11 03:07:56;;;;;;;24.75;15.90;;;;;;;;;;5053541;28;20518;-78
2023/03/11 03:10:23;;;;;;;29.70;17.38;;;;;;;;;;5035569;28;20128;-77
2023/03/11 03:12:48;;;;;;;27.85;16.17;;;;;;;;;;5053186;28;20036;-78
2023/03/11 03:15:14;;;;;;;26.02;17.08;;;;;;;;;;5052621;28;20043;-78
2023/03/11 03:17:41;;;;;;;26.58;16.92;;;;;;;;;;5052811;28;20028;-77
2023/03/11 03:20:10;;;;;;;26.85;16.63;;;;;;;;;;5051542;28;20032;-78
2023/03/11 03:22:37;;;;;;;25.83;16.85;;;;;;;;;;5036568;28;20028;-78
2023/03/11 03:25:03;;;;;;;25.55;16.38;;;;;;;;;;5035085;28;20380;-77
2023/03/11 03:27:29;;;;;;;25.70;16.73;;;;;;;;;;5052502;28;20039;-77
2023/03/11 03:29:55;;;;;;;;;;;;;;;;;;5051479;28;20029;-77
2023/03/11 03:32:20;;;;;;;28.63;17.33;;;;;;;;;;5052359;28;20078;-77
2023/03/11 03:34:46;;;;;;;35.15;20.50;;;;;;;;;;5034447;28;20488;-77
2023/03/11 03:37:12;;;;;;;28.38;17.42;;;;;;;;;;5051906;28;20064;-77
2023/03/11 03:39:38;;;;;;;26.40;17.33;;;;;;;;;;5039164;28;20127;-77
2023/03/11 03:42:05;;;;;;;26.75;17.77;;;;;;;;;;5052917;28;20562;-76
2023/03/11 03:44:33;;;;;;;25.80;18.00;;;;;;;;;;5052178;28;20028;-77
2023/03/11 03:46:59;;;;;;;27.45;17.50;;;;;;;;;;5036293;28;20020;-78
2023/03/11 03:49:24;;;;;;;26.67;16.90;;;;;;;;;;5052121;28;20041;-78
2023/03/11 03:51:50;;;;;;;25.98;16.85;;;;;;;;;;5036723;28;20032;-78
2023/03/11 03:54:25;;;;;;;26.25;16.70;;;;;;;;;;5051432;28;20044;-77
2023/03/11 03:56:50;;;;;;;28.35;17.05;;;;;;;;;;5052467;28;20783;-77
2023/03/11 03:59:16;;;;;;;28.90;17.88;;;;;;;;;;5013342;28;20084;-76
2023/03/11 04:01:48;;;;;;;29.02;17.58;;;;;;;;;;5040287;28;20032;-76
2023/03/11 04:04:14;;;;;;;26.30;16.88;;;;;;;;;;5033210;28;20402;-77
2023/03/11 04:06:40;;;;;;;25.20;17.42;;;;;;;;;;5017085;28;20144;-76
2023/03/11 04:09:06;;;;;;;24.77;17.08;;;;;;;;;;5016764;28;20033;-76
2023/03/11 04:11:33;;;;;;;26.08;16.90;;;;;;;;;;5015359;28;20021;-77
2023/03/11 04:14:01;;;;;;;26.52;16.95;;;;;;;;;;5032925;28;20040;-77
2023/03/11 04:16:27;;;;;;;25.80;17.88;;;;;;;;;;5052246;28;20033;-77
2023/03/11 04:18:58;;;;;;;27.27;18.45;;;;;;;;;;5033613;28;20059;-77
2023/03/11 04:21:24;;;;;;;29.60;17.80;;;;;;;;;;5033788;28;20033;-76
2023/03/11 04:23:50;;;;;;;27.08;17.67;;;;;;;;;;5033906;28;20037;-78
2023/03/11 04:26:19;;;;;;;29.38;19.67;;;;;;;;;;5018054;28;20039;-78
2023/03/11 04:28:44;;;;;;;28.83;17.88;;;;;;;;;;5017601;28;20527;-78
2023/03/11 04:31:11;;;;;;;31.63;18.60;;;;;;;;;;5034443;28;20041;-78
2023/03/11 04:33:37;;;;;;;24.38;16.30;;;;;;;;;;5017683;28;20048;-78
2023/03/11 04:36:05;;;;;;;27.73;16.88;;;;;;;;;;5017818;28;20141;-76
2023/03/11 04:38:31;;;;;;;28.08;18.08;;;;;;;;;;4997948;28;20539;-77
2023/03/11 04:41:04;;;;;;;28.92;18.20;;;;;;;;;;5061306;28;20131;-76
2023/03/11 04:43:29;;;;;;;26.98;18.10;;;;;;;;;;5042795;28;20041;-77
2023/03/11 04:45:55;;;;;;;27.50;18.20;;;;;;;;;;5035256;28;20426;-78
2023/03/11 04:48:20;;;;;;;28.25;19.63;;;;;;;;;;5070477;28;20407;-79
2023/03/11 04:50:47;;;;;;;26.55;17.77;;;;;;;;;;5033357;28;20029;-76
2023/03/11 04:53:13;;;;;;;25.58;19.02;;;;;;;;;;5033319;28;20025;-76
2023/03/11 04:55:40;;;;;;;28.80;19.92;;;;;;;;;;5032565;28;20044;-76
2023/03/11 04:58:06;;;;;;;33.08;21.15;;;;;;;;;;5032431;28;20073;-77
2023/03/11 05:00:33;;;;;;;30.45;20.58;;;;;;;;;;5032566;28;20028;-76
2023/03/11 05:03:04;;;;;;;30.83;20.85;;;;;;;;;;5017440;28;20033;-80
2023/03/11 05:05:30;;;;;;;;;;;;;;;;;;5033546;28;20051;-78
2023/03/11 05:07:55;;;;;;;29.25;19.63;;;;;;;;;;5036864;28;19909;-77
2023/03/11 05:10:22;;;;;;;30.25;21.55;;;;;;;;;;5036344;28;20056;-78
2023/03/11 05:12:49;;;;;;;30.80;21.63;;;;;;;;;;5020505;28;20078;-77
2023/03/11 05:15:15;;;;;;;32.03;20.70;;;;;;;;;;5035935;28;20041;-77
2023/03/11 05:17:40;;;;;;;27.25;19.98;;;;;;;;;;5019487;28;20542;-77
2023/03/11 05:20:07;;;;;;;32.47;21.98;;;;;;;;;;5036258;28;20028;-77
2023/03/11 05:22:33;;;;;;;32.47;20.88;;;;;;;;;;5036624;28;20384;-77
2023/03/11 05:24:59;;;;;;;30.95;21.20;;;;;;;;;;5003139;28;20025;-79
2023/03/11 05:27:24;;;;;;;25.65;16.63;;;;;;;;;;5003595;28;20027;-77
2023/03/11 05:29:54;;;;;;;30.13;21.15;;;;;;;;;;5036141;28;20087;-77
2023/03/11 05:32:22;;;;;;;31.67;19.95;;;;;;;;;;5036120;28;20090;-77
2023/03/11 05:34:48;;;;;;;32.70;21.13;;;;;;;;;;5020113;28;20128;-77
2023/03/11 05:37:15;;;;;;;30.67;20.95;;;;;;;;;;5019521;28;20071;-78
2023/03/11 05:39:41;;;;;;;31.88;20.67;;;;;;;;;;5035544;28;20431;-78
2023/03/11 05:42:07;;;;;;;27.13;19.58;;;;;;;;;;5035873;28;20029;-78
2023/03/11 05:44:37;;;;;;;31.85;20.63;;;;;;;;;;5018878;28;20036;-79
2023/03/11 05:47:03;;;;;;;30.38;19.77;;;;;;;;;;5035758;28;20547;-79
2023/03/11 05:49:30;;;;;;;32.25;22.15;;;;;;;;;;5035137;28;20033;-79
2023/03/11 05:51:56;;;;;;;34.90;21.75;;;;;;;;;;5035923;28;20032;-79
2023/03/11 05:54:23;;;;;;;36.20;22.08;;;;;;;;;;5026260;28;20117;-77
2023/03/11 05:56:50;;;;;;;33.08;20.95;;;;;;;;;;5055595;28;20123;-77
2023/03/11 05:59:17;;;;;;;29.88;20.10;;;;;;;;;;5032535;28;20039;-77
2023/03/11 06:01:47;;;;;;;28.73;19.83;;;;;;;;;;5033097;28;20031;-78
2023/03/11 06:04:13;;;;;;;35.28;21.05;;;;;;;;;;5055201;28;20029;-77
2023/03/11 06:06:40;;;;;;;28.75;17.95;;;;;;;;;;5054625;28;20032;-78
2023/03/11 06:09:06;;;;;;;28.10;18.33;;;;;;;;;;5038434;28;20173;-78
2023/03/11 06:11:31;;;;;;;;;;;;;;;;;;5038694;28;20166;-77
2023/03/11 06:13:57;;;;;;;27.25;19.58;;;;;;;;;;5054744;28;20003;-77
2023/03/11 06:16:25;;;;;;;26.50;19.35;;;;;;;;;;5053931;28;20032;-80
2023/03/11 06:18:54;;;;;;;31.85;19.70;;;;;;;;;;5037881;28;20115;-79
2023/03/11 06:21:21;;;;;;;28.23;18.70;;;;;;;;;;5037043;28;20116;-79
2023/03/11 06:23:46;;;;;;;31.50;19.05;;;;;;;;;;5030264;28;20040;-79
2023/03/11 06:26:13;;;;;;;25.63;17.45;;;;;;;;;;5031417;28;20028;-80
2023/03/11 06:28:41;;;;;;;29.33;19.20;;;;;;;;;;5024745;28;20120;-78
2023/03/11 06:31:07;;;;;;;26.95;18.80;;;;;;;;;;5032429;28;20020;-79
2023/03/11 06:33:52;;;;;;;28.60;18.88;;;;;;;;;;5057396;28;20599;-79
2023/03/11 06:36:18;;;;;;;27.08;18.80;;;;;;;;;;5036070;28;20028;-79
2023/03/11 06:38:45;;;;;;;27.17;19.08;;;;;;;;;;5024540;28;20033;-79
2023/03/11 06:41:11;;;;;;;27.23;18.90;;;;;;;;;;5036711;28;20036;-79
2023/03/11 06:43:36;;;;;;;25.35;18.05;;;;;;;;;;5027854;28;20025;-79
2023/03/11 06:46:07;;;;;;;26.95;18.25;;;;;;;;;;5051869;28;20037;-78
2023/03/11 06:48:33;;;;;;;25.45;17.27;;;;;;;;;;5054633;28;20040;-78
2023/03/11 06:50:58;;;;;;;24.58;17.88;;;;;;;;;;5019170;28;20378;-78
2023/03/11 06:53:25;;;;;;;23.48;16.65;;;;;;;;;;5018779;28;20057;-78
2023/03/11 06:55:58;;;;;;;25.50;17.77;;;;;;;;;;5032862;28;20500;-78
2023/03/11 06:58:24;;;;;;;23.08;16.95;;;;;;;;;;5014847;28;20129;-78
2023/03/11 07:00:50;;;;;;;25.85;17.38;;;;;;;;;;5001281;28;20544;-79
2023/03/11 07:03:16;;;;;;;24.77;16.65;;;;;;;;;;5018156;28;20123;-79
2023/03/11 07:05:43;;;;;;;24.67;16.85;;;;;;;;;;5014397;28;20036;-78
2023/03/11 07:08:10;;;;;;;23.90;16.73;;;;;;;;;;5010741;28;20074;-78
2023/03/11 07:10:36;;;;;;;23.05;17.20;;;;;;;;;;5051377;28;20607;-78
2023/03/11 07:13:01;;;;;;;20.52;15.25;;;;;;;;;;5034070;28;20479;-76
2023/03/11 07:15:27;;;;;;;24.77;16.85;;;;;;;;;;5051463;28;20890;-77
2023/03/11 07:18:17;;;;;;;19.70;13.98;;;;;;;;;;5051688;28;20087;-78
2023/03/11 07:20:43;;;;;;;21.05;15.15;;;;;;;;;;5033669;28;20124;-77
2023/03/11 07:23:09;;;;;;;19.38;14.68;;;;;;;;;;5051756;28;20131;-77
2023/03/11 07:25:34;;;;;;;21.73;14.60;;;;;;;;;;5050276;28;20144;-78
2023/03/11 07:28:00;;;;;;;19.25;14.73;;;;;;;;;;5051272;28;20033;-78
2023/03/11 07:30:25;;;;;;;21.52;14.65;;;;;;;;;;5050833;28;20068;-77
2023/03/11 07:32:51;;;;;;;21.63;14.57;;;;;;;;;;5033839;28;20438;-80
2023/03/11 07:35:16;;;;;;;18.88;13.57;;;;;;;;;;5033730;28;20130;-77
2023/03/11 07:37:42;;;;;;;20.80;14.85;;;;;;;;;;5049654;28;20071;-78
2023/03/11 07:40:07;;;;;;;22.80;15.95;;;;;;;;;;5001223;28;20119;-78
2023/03/11 07:42:33;;;;;;;22.75;15.48;;;;;;;;;;5050944;28;20028;-78
2023/03/11 07:44:59;;;;;;;18.58;14.07;;;;;;;;;;5017094;28;20385;-80
2023/03/11 07:47:24;;;;;;;19.80;14.95;;;;;;;;;;5034093;28;20035;-80
2023/03/11 07:49:50;;;;;;;21.42;14.02;;;;;;;;;;5051662;28;20174;-79
2023/03/11 07:52:15;;;;;;;17.85;13.70;;;;;;;;;;5033662;28;20123;-79
2023/03/11 07:54:41;;;;;;;20.05;14.77;;;;;;;;;;5040807;28;20057;-78
2023/03/11 07:57:08;;;;;;;20.40;14.13;;;;;;;;;;5011829;28;20800;-78
2023/03/11 07:59:33;;;;;;;19.65;12.90;;;;;;;;;;5018383;28;20075;-80
2023/03/11 08:01:59;;;;;;;19.45;13.73;;;;;;;;;;5021407;28;20029;-77
2023/03/11 08:04:24;;;;;;;19.33;13.35;;;;;;;;;;5030618;28;20033;-77
2023/03/11 08:06:50;;;;;;;20.20;12.00;;;;;;;;;;5031917;28;20057;-80
2023/03/11 08:09:16;;;;;;;17.35;12.82;;;;;;;;;;5051949;28;20078;-77
2023/03/11 08:11:41;;;;;;;;;;;;;;;;;;5016819;28;20083;-78
2023/03/11 08:14:07;;;;;;;18.63;13.23;;;;;;;;;;5046206;28;20346;-78
2023/03/11 08:16:32;;;;;;;18.73;12.88;;;;;;;;;;5021355;28;20128;-78
2023/03/11 08:18:58;;;;;;;17.30;13.25;;;;;;;;;;5051079;28;20037;-79
2023/03/11 08:21:24;;;;;;;15.68;12.07;;;;;;;;;;5032395;28;20025;-79
2023/03/11 08:23:50;;;;;;;;;;;;;;;;;;5033930;28;20115;-80
2023/03/11 08:26:16;;;;;;;15.43;11.63;;;;;;;;;;5050631;28;20007;-79
2023/03/11 08:28:42;;;;;;;15.35;12.07;;;;;;;;;;5033274;28;20049;-79
2023/03/11 08:31:11;;;;;;;16.85;12.20;;;;;;;;;;5000121;28;20248;-79
2023/03/11 08:33:37;;;;;;;17.98;12.55;;;;;;;;;;5051665;28;20053;-80
2023/03/11 08:36:03;;;;;;;16.52;11.93;;;;;;;;;;5033635;28;20039;-80
2023/03/11 08:38:28;;;;;;;16.88;12.40;;;;;;;;;;5017297;28;20033;-77
2023/03/11 08:40:54;;;;;;;14.13;10.02;;;;;;;;;;5052239;28;20032;-79
2023/03/11 08:43:19;;;;;;;14.35;10.85;;;;;;;;;;5055566;28;20512;-78
2023/03/11 08:45:45;;;;;;;17.27;11.95;;;;;;;;;;5037162;28;20025;-78
2023/03/11 08:48:10;;;;;;;15.55;11.32;;;;;;;;;;5034926;28;20037;-78
2023/03/11 08:50:36;;;;;;;13.32;9.23;;;;;;;;;;5036345;28;20037;-77
2023/03/11 08:53:02;;;;;;;13.60;10.55;;;;;;;;;;5054925;28;20098;-78
2023/03/11 08:55:27;;;;;;;13.07;10.18;;;;;;;;;;5049347;28;20087;-78
2023/03/11 08:57:53;;;;;;;12.77;9.70;;;;;;;;;;5052487;28;20048;-81
2023/03/11 09:00:19;;;;;;;13.52;9.45;;;;;;;;;;5037036;28;20067;-79
2023/03/11 09:02:44;;;;;;;10.18;7.13;;;;;;;;;;5054778;28;20029;-79
2023/03/11 09:05:10;;;;;;;13.13;9.27;;;;;;;;;;5054089;28;20098;-76
2023/03/11 09:07:35;;;;;;;13.00;7.57;;;;;;;;;;5052264;28;20036;-77
2023/03/11 09:10:01;;;;;;;10.82;8.25;;;;;;;;;;5053850;28;20033;-78
2023/03/11 09:12:27;;;;;;;11.05;8.15;;;;;;;;;;5054456;28;20508;-77
2023/03/11 09:14:53;;;;;;;10.10;7.95;;;;;;;;;;5054600;28;20119;-79
2023/03/11 09:17:19;;;;;;;11.25;8.65;;;;;;;;;;5036074;28;20063;-78
2023/03/11 09:19:44;;;;;;;11.85;8.38;;;;;;;;;;5053912;28;20029;-79
2023/03/11 09:22:10;;;;;;;10.52;8.15;;;;;;;;;;5054633;28;20075;-79
2023/03/11 09:24:35;;;;;;;11.48;8.80;;;;;;;;;;5051086;28;20029;-78
2023/03/11 09:27:01;;;;;;;11.23;8.13;;;;;;;;;;5054137;28;20407;-79
2023/03/11 09:29:26;;;;;;;11.68;7.28;;;;;;;;;;5053655;28;20037;-79
2023/03/11 09:31:52;;;;;;;11.40;8.52;;;;;;;;;;5054170;28;20041;-77
2023/03/11 09:34:17;;;;;;;12.93;8.85;;;;;;;;;;5036601;28;20025;-78
2023/03/11 09:36:43;;;;;;;9.75;7.40;;;;;;;;;;5037104;28;20048;-79
2023/03/11 09:39:08;;;;;;;10.07;7.80;;;;;;;;;;5037017;28;20484;-79
2023/03/11 09:41:41;;;;;;;11.98;7.60;;;;;;;;;;5030183;28;20056;-78
2023/03/11 09:44:11;;;;;;;11.70;7.10;;;;;;;;;;5020127;28;20041;-79
2023/03/11 09:46:37;;;;;;;11.70;8.40;;;;;;;;;;5037039;28;20086;-79
2023/03/11 09:49:05;;;;;;;10.32;7.78;;;;;;;;;;5053709;28;20049;-79
2023/03/11 09:51:32;;;;;;;11.68;8.52;;;;;;;;;;5053201;28;20029;-79
2023/03/11 09:54:04;;;;;;;13.57;8.43;;;;;;;;;;5049862;28;20056;-79
2023/03/11 09:56:29;;;;;;;11.48;8.80;;;;;;;;;;5051995;28;20468;-79
2023/03/11 09:58:55;;;;;;;11.48;8.88;;;;;;;;;;5049764;28;20043;-79
2023/03/11 10:01:21;;;;;;;13.43;9.15;;;;;;;;;;5046380;28;20143;-78
2023/03/11 10:03:46;;;;;;;12.45;8.88;;;;;;;;;;5053873;28;20051;-79
2023/03/11 10:06:18;;;;;;;14.15;8.82;;;;;;;;;;5053518;28;20037;-78
2023/03/11 10:09:02;;;;;;;13.27;8.82;;;;;;;;;;5053362;28;20028;-78
2023/03/11 10:11:32;;;;;;;12.20;9.50;;;;;;;;;;5043311;28;20051;-78
2023/03/11 10:13:58;;;;;;;11.57;9.95;;;;;;;;;;5022595;28;20715;-79
2023/03/11 10:16:25;;;;;;;13.75;8.73;;;;;;;;;;5021382;28;20055;-79
2023/03/11 10:19:19;;;;;;;15.18;9.98;;;;;;;;;;5015007;28;20032;-80
2023/03/11 10:21:48;;;;;;;12.63;9.55;;;;;;;;;;5021864;28;20072;-79
2023/03/11 10:24:23;;;;;;;11.52;9.35;;;;;;;;;;5023648;28;20465;-78
2023/03/11 10:26:50;;;;;;;12.63;9.85;;;;;;;;;;5040166;28;20032;-79
2023/03/11 10:29:26;;;;;;;13.25;9.57;;;;;;;;;;5025074;28;20025;-77
2023/03/11 10:32:06;;;;;;;14.45;10.13;;;;;;;;;;5032166;28;20037;-79
2023/03/11 10:34:39;;;;;;;9.45;7.40;;;;;;;;;;5031603;28;20084;-77
2023/03/11 10:37:18;;;;;;;12.63;9.18;;;;;;;;;;5019405;28;20068;-79
2023/03/11 10:39:45;;;;;;;11.63;8.70;;;;;;;;;;5033842;28;20104;-79
2023/03/11 10:42:11;;;;;;;9.38;7.72;;;;;;;;;;5020617;28;20019;-78
2023/03/11 10:44:37;;;;;;;12.77;8.50;;;;;;;;;;5020558;28;20037;-80
2023/03/11 10:47:03;;;;;;;10.57;8.32;;;;;;;;;;5019930;28;20037;-77
2023/03/11 10:49:28;;;;;;;11.30;8.18;;;;;;;;;;5040512;28;20037;-77
2023/03/11 10:51:54;;;;;;;11.73;8.52;;;;;;;;;;5053266;28;20040;-79
2023/03/11 10:54:25;;;;;;;12.63;9.30;;;;;;;;;;5048123;28;20045;-78
2023/03/11 10:56:53;;;;;;;12.38;8.68;;;;;;;;;;5018558;28;20076;-79
2023/03/11 10:59:21;;;;;;;11.07;9.13;;;;;;;;;;5046801;28;20460;-77
2023/03/11 11:02:05;;;;;;;10.23;8.55;;;;;;;;;;5045884;28;20468;-77
2023/03/11 11:04:35;;;;;;;10.52;7.47;;;;;;;;;;5028256;28;20033;-78
2023/03/11 11:07:19;;;;;;;10.02;8.10;;;;;;;;;;5052265;28;20399;-79
2023/03/11 11:09:44;;;;;;;12.23;9.10;;;;;;;;;;5047520;28;20492;-78
2023/03/11 11:12:14;;;;;;;12.57;9.68;;;;;;;;;;5051970;28;20040;-78
2023/03/11 11:14:40;;;;;;;9.98;7.95;;;;;;;;;;5031075;28;20047;-77
2023/03/11 11:17:12;;;;;;;11.90;8.60;;;;;;;;;;5031615;28;20029;-77
2023/03/11 11:19:42;;;;;;;11.70;9.10;;;;;;;;;;5025613;28;20051;-78
2023/03/11 11:22:09;;;;;;;12.82;9.70;;;;;;;;;;5022787;28;20488;-78
2023/03/11 11:24:35;;;;;;;11.98;8.95;;;;;;;;;;5010383;28;20408;-78
2023/03/11 11:27:10;;;;;;;11.95;8.30;;;;;;;;;;5034568;28;20055;-78
2023/03/11 11:29:36;;;;;;;14.30;10.18;;;;;;;;;;5041688;28;20503;-77
2023/03/11 11:32:23;;;;;;;11.52;8.27;;;;;;;;;;5030413;28;20020;-78
2023/03/11 11:34:48;;;;;;;;;;;;;;;;;;5028733;28;20041;-78
2023/03/11 11:37:14;;;;;;;13.52;8.82;;;;;;;;;;5048171;28;20003;-77
2023/03/11 11:39:49;;;;;;;13.90;9.98;;;;;;;;;;5030787;28;20435;-77
2023/03/11 11:42:16;;;;;;;17.40;9.35;;;;;;;;;;5024673;28;20079;-78
2023/03/11 11:44:41;;;;;;;12.38;9.82;;;;;;;;;;5042797;28;20032;-77
2023/03/11 11:47:12;;;;;;;14.95;10.43;;;;;;;;;;5043831;28;20037;-78
2023/03/11 11:49:37;;;;;;;13.45;9.88;;;;;;;;;;5025951;28;20032;-77
2023/03/11 11:52:05;;;;;;;13.43;9.75;;;;;;;;;;5025079;28;20439;-77
2023/03/11 11:54:37;;;;;;;12.90;9.82;;;;;;;;;;5034173;28;20078;-79
2023/03/11 11:57:10;;;;;;;14.70;10.32;;;;;;;;;;5029212;28;20033;-77
2023/03/11 11:59:35;;;;;;;13.57;10.63;;;;;;;;;;5001146;28;20033;-78
2023/03/11 12:02:20;;;;;;;16.77;12.40;;;;;;;;;;5033823;28;20024;-78
2023/03/11 12:05:05;;;;;;;18.70;11.82;;;;;;;;;;5045968;28;20109;-77
2023/03/11 12:07:40;;;;;;;15.35;11.95;;;;;;;;;;5015469;28;20445;-78
2023/03/11 12:10:11;;;;;;;14.55;10.75;;;;;;;;;;5035753;28;20021;-77
2023/03/11 12:12:40;;;;;;;15.20;11.25;;;;;;;;;;5039295;28;20210;-77
2023/03/11 12:15:14;;;;;;;12.93;9.60;;;;;;;;;;5014482;28;20120;-78
2023/03/11 12:17:41;;;;;;;14.50;10.63;;;;;;;;;;5039507;28;20033;-77
2023/03/11 12:20:26;;;;;;;18.15;11.50;;;;;;;;;;5012547;28;20116;-77
2023/03/11 12:23:11;;;;;;;16.67;11.43;;;;;;;;;;5047894;28;20120;-79
2023/03/11 12:25:54;;;;;;;16.42;10.63;;;;;;;;;;5022638;28;20385;-77
2023/03/11 12:28:28;;;;;;;20.67;12.15;;;;;;;;;;5018402;28;20504;-78
2023/03/11 12:30:58;;;;;;;17.80;11.75;;;;;;;;;;5032971;28;20128;-77
2023/03/11 12:33:24;;;;;;;16.98;11.77;;;;;;;;;;5024097;28;20034;-77
2023/03/11 12:35:55;;;;;;;16.02;11.75;;;;;;;;;;5032573;28;20037;-78
2023/03/11 12:38:31;;;;;;;18.70;12.05;;;;;;;;;;5004133;28;20033;-78
2023/03/11 12:41:01;;;;;;;15.88;10.75;;;;;;;;;;5027363;28;20033;-77
2023/03/11 12:43:32;;;;;;;17.73;11.88;;;;;;;;;;5028896;28;20032;-76
2023/03/11 12:45:58;;;;;;;16.58;11.45;;;;;;;;;;5023745;28;20034;-77
2023/03/11 12:48:23;;;;;;;;;;;;;;;;;;5014481;28;20028;-76
2023/03/11 12:50:49;;;;;;;18.02;12.48;;;;;;;;;;5015353;28;19912;-78
2023/03/11 12:53:15;;;;;;;18.08;11.98;;;;;;;;;;5032554;28;20037;-76
2023/03/11 12:55:43;;;;;;;24.58;13.85;;;;;;;;;;5035410;28;20048;-77
2023/03/11 12:58:19;;;;;;;18.27;11.35;;;;;;;;;;5013040;28;20030;-77
2023/03/11 13:01:00;;;;;;;15.93;11.37;;;;;;;;;;5027002;28;20500;-76
2023/03/11 13:03:33;;;;;;;20.92;12.63;;;;;;;;;;5018464;28;20762;-76
2023/03/11 13:06:03;;;;;;;19.95;12.80;;;;;;;;;;5001858;28;20086;-77
2023/03/11 13:08:35;;;;;;;21.15;12.68;;;;;;;;;;5022009;28;20045;-76
2023/03/11 13:11:00;;;;;;;21.67;13.68;;;;;;;;;;5044728;28;20061;-77
2023/03/11 13:13:32;;;;;;;23.00;14.93;;;;;;;;;;5034255;28;20056;-77
2023/03/11 13:16:00;;;;;;;22.23;13.35;;;;;;;;;;5021813;28;20090;-79
2023/03/11 13:18:26;;;;;;;24.38;13.77;;;;;;;;;;5013795;28;20040;-78
2023/03/11 13:20:54;;;;;;;;;;;;;;;;;;5018128;28;20044;-79
2023/03/11 13:23:24;;;;;;;21.67;13.50;;;;;;;;;;5040166;28;20011;-78
2023/03/11 13:25:52;;;;;;;21.30;13.07;;;;;;;;;;5016659;28;20095;-78
2023/03/11 13:28:19;;;;;;;23.50;13.43;;;;;;;;;;5040364;28;20040;-79
2023/03/11 13:30:49;;;;;;;22.98;14.77;;;;;;;;;;5036925;28;20033;-77
2023/03/11 13:33:14;;;;;;;18.70;11.82;;;;;;;;;;5050196;28;20476;-79
2023/03/11 13:35:58;;;;;;;23.45;14.15;;;;;;;;;;5046460;28;20033;-78
2023/03/11 13:38:52;;;;;;;25.70;14.25;;;;;;;;;;5053840;28;20045;-77
2023/03/11 13:41:44;;;;;;;27.85;15.73;;;;;;;;;;5017011;28;20025;-78
2023/03/11 13:44:09;;;;;;;25.25;15.82;;;;;;;;;;5034607;28;20037;-77
2023/03/11 13:46:37;;;;;;;25.88;15.80;;;;;;;;;;5039478;28;20030;-78
2023/03/11 13:49:08;;;;;;;27.08;16.88;;;;;;;;;;5014732;28;20179;-77
2023/03/11 13:51:36;;;;;;;26.88;16.25;;;;;;;;;;5024613;28;20515;-77
2023/03/11 13:54:02;;;;;;;26.30;15.90;;;;;;;;;;5018156;28;20056;-79
2023/03/11 13:56:29;;;;;;;27.13;16.45;;;;;;;;;;5034977;28;20041;-79
2023/03/11 13:59:13;;;;;;;25.52;15.93;;;;;;;;;;5043037;28;20118;-77
2023/03/11 14:01:39;;;;;;;33.92;19.27;;;;;;;;;;5045555;28;20037;-78
2023/03/11 14:04:09;;;;;;;25.73;17.30;;;;;;;;;;5032064;28;20024;-78
2023/03/11 14:06:34;;;;;;;29.05;18.45;;;;;;;;;;5049640;28;20045;-77
2023/03/11 14:09:00;;;;;;;26.45;16.92;;;;;;;;;;5052388;28;20399;-78
2023/03/11 14:11:26;;;;;;;31.35;18.25;;;;;;;;;;5053893;28;20054;-76
2023/03/11 14:13:52;;;;;;;;;;;;;;;;;;5036026;28;20029;-77
2023/03/11 14:16:32;;;;;;;28.70;18.38;;;;;;;;;;5053898;28;19912;-77
2023/03/11 14:19:02;;;;;;;31.83;18.85;;;;;;;;;;5054019;28;20045;-78
2023/03/11 14:21:29;;;;;;;31.35;18.38;;;;;;;;;;5035754;28;20120;-79
2023/03/11 14:23:54;;;;;;;29.85;18.27;;;;;;;;;;5053894;28;20048;-77
2023/03/11 14:26:29;;;;;;;31.17;18.77;;;;;;;;;;5053699;28;20025;-78
2023/03/11 14:28:57;;;;;;;28.88;17.65;;;;;;;;;;5052404;28;20029;-77